Terminal Aerodrome Forecast
Issued by NWS Sioux Falls, SD

Home | Current Version | Previous Version | Graphics & Text | Print | Product List | Glossary Off
Versions: 1 2 3 4 5 6 7 8 9 10 11 12 13 14 15 16

000
FTUS43 KFSD 210100 AAA
TAFSUX
TAF AMD
KSUX 210104Z 2101/2124 19007KT P6SM SCT080 BKN150
     FM210700 21006KT P6SM SHRA BKN060
     FM211000 32010KT P6SM SCT060 BKN150
     FM211400 35017G26KT P6SM SKC=

USA.gov is the U.S. government's official web portal to all federal, state and local government web resources and services.